Time;durP1;ratioP1;P1;durP2;ratioP2;P2;SDS_P1;SDS_P2;PMS_P1;PMS_P2;Temp;Humidity;BMP_temperature;BMP_pressure;BME280_temperature;BME280_humidity;BME280_pressure;Samples;Min_cycle;Max_cycle;Signal;HPM_P1;HPM_P2
2023/03/05 00:01:34;;;;;;;7.00;1.40;;;3.30;99.90;;;;;;5035892;28;20051;-71
2023/03/05 00:04:01;;;;;;;8.50;1.15;;;3.20;99.90;;;;;;5033757;28;20041;-71
2023/03/05 00:06:29;;;;;;;9.27;1.50;;;3.30;99.90;;;;;;5049549;28;20040;-72
2023/03/05 00:08:57;;;;;;;9.02;1.55;;;3.20;99.90;;;;;;5039723;28;20155;-71
2023/03/05 00:11:26;;;;;;;10.80;1.25;;;3.20;99.90;;;;;;5032346;28;20052;-71
2023/03/05 00:13:53;;;;;;;8.63;1.42;;;3.40;99.90;;;;;;5026007;28;20049;-72
2023/03/05 00:16:19;;;;;;;7.97;1.73;;;3.20;99.90;;;;;;5053336;28;20064;-74
2023/03/05 00:18:45;;;;;;;10.25;1.50;;;3.30;99.90;;;;;;5047124;28;20044;-71
2023/03/05 00:21:22;;;;;;;5.75;1.55;;;3.30;99.90;;;;;;5030684;28;20052;-72
2023/03/05 00:23:49;;;;;;;11.48;1.52;;;3.30;99.90;;;;;;5030319;28;20151;-71
2023/03/05 00:26:19;;;;;;;10.63;1.60;;;3.30;99.90;;;;;;5030380;28;20127;-72
2023/03/05 00:28:48;;;;;;;9.18;2.15;;;3.40;99.90;;;;;;5033961;28;20044;-72
2023/03/05 00:31:16;;;;;;;11.73;2.10;;;3.40;99.90;;;;;;5032045;28;20523;-71
2023/03/05 00:33:42;;;;;;;8.75;1.88;;;3.20;99.90;;;;;;5008528;28;20083;-72
2023/03/05 00:36:09;;;;;;;5.38;1.40;;;3.20;99.90;;;;;;5021264;28;20071;-72
2023/03/05 00:38:34;;;;;;;8.82;2.00;;;3.20;99.90;;;;;;5053253;28;20217;-71
2023/03/05 00:41:01;;;;;;;12.63;1.52;;;3.20;99.90;;;;;;5033486;28;20151;-71
2023/03/05 00:43:27;;;;;;;7.05;1.58;;;3.20;99.90;;;;;;5028601;28;20151;-71
2023/03/05 00:45:53;;;;;;;8.27;1.50;;;3.30;99.90;;;;;;5046639;28;20044;-72
2023/03/05 00:48:19;;;;;;;10.00;1.30;;;3.20;99.90;;;;;;5052448;28;20059;-72
2023/03/05 00:50:44;;;;;;;4.60;0.95;;;3.30;99.90;;;;;;5028043;28;20094;-72
2023/03/05 00:53:10;;;;;;;5.40;1.33;;;3.30;99.90;;;;;;5057471;28;20066;-74
2023/03/05 00:55:36;;;;;;;6.07;1.00;;;3.30;99.90;;;;;;5046257;28;20091;-72
2023/03/05 00:58:02;;;;;;;7.00;1.00;;;3.30;99.90;;;;;;5050321;28;20422;-71
2023/03/05 01:00:28;;;;;;;3.08;0.80;;;3.30;99.90;;;;;;5016985;28;20795;-72
2023/03/05 01:02:53;;;;;;;6.40;1.40;;;3.30;99.90;;;;;;5029482;28;20089;-72
2023/03/05 01:05:19;;;;;;;6.07;1.20;;;3.30;99.90;;;;;;5027331;28;20047;-71
2023/03/05 01:07:45;;;;;;;5.00;1.40;;;3.30;99.90;;;;;;5035802;28;20592;-71
2023/03/05 01:10:12;;;;;;;3.58;1.13;;;3.40;99.90;;;;;;5004161;28;20135;-71
2023/03/05 01:12:39;;;;;;;6.75;1.38;;;3.40;99.90;;;;;;5015199;28;20055;-71
2023/03/05 01:15:05;;;;;;;4.75;1.25;;;3.30;99.90;;;;;;5043179;28;20068;-71
2023/03/05 01:17:31;;;;;;;5.20;1.25;;;3.30;99.90;;;;;;5035004;28;20079;-71
2023/03/05 01:19:57;;;;;;;3.88;1.30;;;3.30;99.90;;;;;;5020180;28;20543;-71
2023/03/05 01:22:23;;;;;;;3.75;1.00;;;3.30;99.90;;;;;;4995960;28;20051;-71
2023/03/05 01:24:48;;;;;;;5.07;1.10;;;3.20;99.90;;;;;;5038367;28;20398;-72
2023/03/05 01:27:14;;;;;;;9.18;1.00;;;3.20;99.90;;;;;;5014137;28;20071;-72
2023/03/05 01:29:40;;;;;;;4.15;1.05;;;3.10;99.90;;;;;;5031200;28;20159;-72
2023/03/05 01:32:06;;;;;;;8.05;1.23;;;3.20;99.90;;;;;;5016726;28;20866;-72
2023/03/05 01:34:31;;;;;;;5.68;1.08;;;3.10;99.90;;;;;;5034599;28;20495;-72
2023/03/05 01:36:57;;;;;;;5.72;1.13;;;3.10;99.90;;;;;;5015984;28;20060;-72
2023/03/05 01:39:23;;;;;;;9.23;1.85;;;3.10;99.90;;;;;;5028034;28;20049;-72
2023/03/05 01:41:49;;;;;;;5.97;1.52;;;3.10;99.90;;;;;;5031731;28;20124;-72
2023/03/05 01:44:26;;;;;;;3.60;1.27;;;3.10;99.90;;;;;;5031586;28;20063;-72
2023/03/05 01:46:52;;;;;;;9.65;1.23;;;3.00;99.90;;;;;;4987433;28;20056;-72
2023/03/05 01:49:35;;;;;;;6.00;1.42;;;3.00;99.90;;;;;;5033387;28;20044;-72
2023/03/05 01:52:10;;;;;;;6.30;1.20;;;3.00;99.90;;;;;;4996426;28;20053;-72
2023/03/05 01:54:39;;;;;;;10.13;1.40;;;3.00;99.90;;;;;;5027210;28;20052;-71
2023/03/05 01:57:12;;;;;;;5.05;1.23;;;2.90;99.90;;;;;;4993026;28;20052;-71
2023/03/05 01:59:42;;;;;;;8.18;1.42;;;2.90;99.90;;;;;;5033325;28;21471;-71
2023/03/05 02:02:08;;;;;;;3.95;1.20;;;3.00;99.90;;;;;;5033673;28;20052;-71
2023/03/05 02:04:45;;;;;;;4.65;0.95;;;3.00;99.90;;;;;;5049022;28;20167;-71
2023/03/05 02:07:12;;;;;;;4.78;1.20;;;3.00;99.90;;;;;;4997527;28;20105;-72
2023/03/05 02:09:40;;;;;;;3.72;1.45;;;3.10;99.90;;;;;;5028737;28;20510;-74
2023/03/05 02:12:08;;;;;;;8.43;1.35;;;3.00;99.90;;;;;;5030158;28;20131;-72
2023/03/05 02:14:34;;;;;;;5.30;1.08;;;3.00;99.90;;;;;;5036415;28;20408;-71
2023/03/05 02:17:01;;;;;;;5.72;1.10;;;3.00;99.90;;;;;;5042010;28;20081;-72
2023/03/05 02:19:27;;;;;;;4.60;1.05;;;2.90;99.90;;;;;;5046396;28;20470;-71
2023/03/05 02:21:53;;;;;;;6.97;1.42;;;2.90;99.90;;;;;;5047671;28;20048;-72
2023/03/05 02:24:34;;;;;;;5.22;1.05;;;2.90;99.90;;;;;;5048327;28;20040;-71
2023/03/05 02:27:02;;;;;;;5.65;1.10;;;2.90;99.90;;;;;;5039089;28;20189;-71
2023/03/05 02:29:29;;;;;;;4.15;1.00;;;2.80;99.90;;;;;;5031730;28;20039;-71
2023/03/05 02:31:55;;;;;;;5.97;1.08;;;2.80;99.90;;;;;;5046952;28;20466;-71
2023/03/05 02:34:22;;;;;;;4.28;1.23;;;2.80;99.90;;;;;;5048883;28;20059;-71
2023/03/05 02:36:49;;;;;;;3.63;1.15;;;2.80;99.90;;;;;;5008804;28;20127;-72
2023/03/05 02:39:16;;;;;;;6.20;1.23;;;2.80;99.90;;;;;;5015254;28;21055;-71
2023/03/05 02:41:42;;;;;;;5.22;1.25;;;2.80;99.90;;;;;;5033610;28;21367;-71
2023/03/05 02:44:08;;;;;;;2.38;0.90;;;2.70;99.90;;;;;;5023516;28;20054;-71
2023/03/05 02:46:34;;;;;;;2.50;1.10;;;2.80;99.90;;;;;;5053047;28;20084;-71
2023/03/05 02:48:59;;;;;;;4.28;1.10;;;2.70;99.90;;;;;;4995530;28;20398;-72
2023/03/05 02:51:25;;;;;;;5.40;1.30;;;2.70;99.90;;;;;;5051826;28;20048;-72
2023/03/05 02:53:52;;;;;;;3.08;1.15;;;2.70;99.90;;;;;;5015688;28;20494;-72
2023/03/05 02:56:18;;;;;;;4.93;1.25;;;2.70;99.90;;;;;;5032589;28;20106;-74
2023/03/05 02:58:43;;;;;;;4.68;1.10;;;2.60;99.90;;;;;;5051266;28;20974;-73
2023/03/05 03:01:09;;;;;;;4.43;1.17;;;2.70;99.90;;;;;;5031474;28;20043;-73
2023/03/05 03:03:36;;;;;;;9.18;1.42;;;2.60;99.90;;;;;;5053475;28;20056;-74
2023/03/05 03:06:02;;;;;;;8.90;1.15;;;2.60;99.90;;;;;;5048914;28;20131;-73
2023/03/05 03:08:28;;;;;;;9.10;1.42;;;2.60;99.90;;;;;;5048206;28;20086;-73
2023/03/05 03:10:55;;;;;;;3.78;1.05;;;2.70;99.90;;;;;;5039653;28;20068;-74
2023/03/05 03:13:24;;;;;;;5.38;1.20;;;2.70;99.90;;;;;;5043438;28;20086;-73
2023/03/05 03:15:50;;;;;;;8.20;1.70;;;2.60;99.90;;;;;;5045927;28;20056;-73
2023/03/05 03:18:15;;;;;;;2.97;1.17;;;2.70;99.90;;;;;;5049831;28;20040;-74
2023/03/05 03:20:41;;;;;;;4.20;1.20;;;2.70;99.90;;;;;;5053492;28;20051;-71
2023/03/05 03:23:07;;;;;;;6.75;1.20;;;2.60;99.90;;;;;;5019052;28;20044;-71
2023/03/05 03:25:33;;;;;;;6.18;1.27;;;2.60;99.90;;;;;;5047673;28;20047;-71
2023/03/05 03:27:59;;;;;;;7.35;1.55;;;2.50;99.90;;;;;;5048488;28;20047;-71
2023/03/05 03:30:25;;;;;;;8.40;1.33;;;2.50;99.90;;;;;;5011750;28;20676;-71
2023/03/05 03:32:51;;;;;;;5.35;1.15;;;2.70;99.90;;;;;;5026400;28;20077;-71
2023/03/05 03:35:17;;;;;;;8.95;1.50;;;2.50;99.90;;;;;;5044904;28;20135;-71
2023/03/05 03:37:43;;;;;;;5.90;1.50;;;2.40;99.90;;;;;;5029014;28;20056;-71
2023/03/05 03:40:11;;;;;;;6.05;1.40;;;2.40;99.90;;;;;;5017068;28;20040;-71
2023/03/05 03:42:36;;;;;;;5.97;1.27;;;2.40;99.90;;;;;;5042881;28;20500;-71
2023/03/05 03:45:03;;;;;;;9.93;1.80;;;2.40;99.90;;;;;;5027236;28;20051;-71
2023/03/05 03:47:30;;;;;;;5.78;1.50;;;2.40;99.90;;;;;;5027083;28;20047;-72
2023/03/05 03:49:55;;;;;;;3.47;1.13;;;2.30;99.90;;;;;;5027394;28;20044;-72
2023/03/05 03:52:21;;;;;;;3.30;1.00;;;2.40;99.90;;;;;;5017763;28;20051;-73
2023/03/05 03:54:49;;;;;;;4.00;0.90;;;2.40;99.90;;;;;;5045665;28;20047;-73
2023/03/05 03:57:15;;;;;;;5.25;1.75;;;2.30;99.90;;;;;;5045184;28;20051;-73
2023/03/05 03:59:40;;;;;;;6.18;1.40;;;2.30;99.90;;;;;;5028255;28;20520;-73
2023/03/05 04:02:06;;;;;;;9.35;1.60;;;2.40;99.90;;;;;;5022979;28;20055;-73
2023/03/05 04:04:32;;;;;;;5.18;1.80;;;2.30;99.90;;;;;;5060996;28;20044;-73
2023/03/05 04:06:58;;;;;;;7.75;1.50;;;2.40;99.90;;;;;;4987524;28;20079;-73
2023/03/05 04:09:24;;;;;;;4.75;1.73;;;2.30;99.90;;;;;;5044147;28;20075;-73
2023/03/05 04:11:49;;;;;;;8.25;1.77;;;2.30;99.90;;;;;;5005605;28;20044;-73
2023/03/05 04:14:15;;;;;;;8.18;1.50;;;2.30;99.90;;;;;;5042116;28;20189;-73
2023/03/05 04:16:41;;;;;;;5.22;1.88;;;2.30;99.90;;;;;;5021426;28;20088;-73
2023/03/05 04:19:07;;;;;;;4.03;1.23;;;2.30;99.90;;;;;;5042014;28;20049;-73
2023/03/05 04:21:33;;;;;;;6.57;1.35;;;2.30;99.90;;;;;;5025075;28;20382;-71
2023/03/05 04:23:58;;;;;;;3.53;1.05;;;2.30;99.90;;;;;;5029778;28;20072;-71
2023/03/05 04:26:24;;;;;;;5.93;1.52;;;2.30;99.90;;;;;;5039802;28;20143;-71
2023/03/05 04:28:50;;;;;;;5.43;1.30;;;2.40;99.90;;;;;;5026420;28;20140;-71
2023/03/05 04:31:16;;;;;;;5.80;1.20;;;2.40;99.90;;;;;;5024669;28;20385;-73
2023/03/05 04:33:42;;;;;;;4.63;1.52;;;2.40;99.90;;;;;;5055663;28;20773;-73
2023/03/05 04:36:08;;;;;;;4.32;1.33;;;2.40;99.90;;;;;;5021887;28;20040;-73
2023/03/05 04:38:33;;;;;;;5.63;1.73;;;2.40;99.90;;;;;;5037852;28;20535;-73
2023/03/05 04:40:59;;;;;;;5.95;1.60;;;2.40;99.90;;;;;;5024089;28;20045;-73
2023/03/05 04:43:25;;;;;;;5.00;1.20;;;2.40;99.90;;;;;;5044005;28;20135;-73
2023/03/05 04:45:51;;;;;;;3.72;1.40;;;2.40;99.90;;;;;;5047920;28;20048;-73
2023/03/05 04:48:17;;;;;;;4.63;1.15;;;2.40;99.90;;;;;;5049027;28;20052;-73
2023/03/05 04:50:43;;;;;;;4.18;1.00;;;2.40;99.90;;;;;;5034240;28;20588;-73
2023/03/05 04:53:09;;;;;;;4.45;1.38;;;2.30;99.90;;;;;;5031827;28;20059;-73
2023/03/05 04:55:35;;;;;;;4.35;1.58;;;2.30;99.90;;;;;;5027172;28;20088;-73
2023/03/05 04:58:01;;;;;;;7.40;1.48;;;2.30;99.90;;;;;;5025879;28;20285;-73
2023/03/05 05:00:26;;;;;;;4.32;1.30;;;2.30;99.90;;;;;;5030615;28;20170;-73
2023/03/05 05:02:52;;;;;;;8.95;1.55;;;2.40;99.90;;;;;;5041532;28;20768;-73
2023/03/05 05:05:22;;;;;;;7.28;1.48;;;2.40;99.90;;;;;;5061295;28;20085;-73
2023/03/05 05:07:48;;;;;;;5.25;1.58;;;2.50;99.90;;;;;;5040507;28;20051;-73
2023/03/05 05:10:15;;;;;;;5.50;1.13;;;2.40;99.90;;;;;;5051295;28;20475;-71
2023/03/05 05:12:41;;;;;;;4.22;0.90;;;2.40;99.90;;;;;;5038310;28;20179;-71
2023/03/05 05:15:08;;;;;;;5.82;1.27;;;2.40;99.90;;;;;;5051709;28;20151;-71
2023/03/05 05:17:34;;;;;;;4.07;0.98;;;2.40;99.90;;;;;;5016925;28;20763;-71
2023/03/05 05:20:00;;;;;;;4.88;0.80;;;2.40;99.90;;;;;;5031388;28;20083;-71
2023/03/05 05:22:28;;;;;;;4.13;0.98;;;2.40;99.90;;;;;;5050081;28;20358;-73
2023/03/05 05:24:54;;;;;;;4.72;0.80;;;2.40;99.90;;;;;;5019366;28;20040;-73
2023/03/05 05:27:21;;;;;;;4.45;0.90;;;2.30;99.90;;;;;;5054481;28;20052;-73
2023/03/05 05:29:49;;;;;;;1.88;0.73;;;2.40;99.90;;;;;;5029607;28;20474;-73
2023/03/05 05:32:16;;;;;;;2.75;0.98;;;2.40;99.90;;;;;;5027995;28;20048;-73
2023/03/05 05:34:42;;;;;;;5.78;1.10;;;2.30;99.90;;;;;;5046743;28;20044;-73
2023/03/05 05:37:08;;;;;;;7.20;1.00;;;2.30;99.90;;;;;;5032860;28;20494;-73
2023/03/05 05:39:35;;;;;;;4.18;1.33;;;2.30;99.90;;;;;;5051895;28;20048;-72
2023/03/05 05:42:00;;;;;;;9.35;1.17;;;2.30;99.90;;;;;;5035830;28;20086;-73
2023/03/05 05:44:26;;;;;;;9.45;1.00;;;2.30;99.90;;;;;;5046106;28;20048;-71
2023/03/05 05:46:52;;;;;;;7.00;0.90;;;2.30;99.90;;;;;;5025312;28;20209;-71
2023/03/05 05:49:18;;;;;;;5.55;1.10;;;2.20;99.90;;;;;;5044022;28;20805;-73
2023/03/05 05:51:44;;;;;;;4.40;1.00;;;2.20;99.90;;;;;;5027764;28;20052;-71
2023/03/05 05:54:13;;;;;;;4.20;1.10;;;2.10;99.90;;;;;;5047975;28;20579;-71
2023/03/05 05:56:39;;;;;;;2.30;1.30;;;2.20;99.90;;;;;;5061565;28;20036;-71
2023/03/05 05:59:04;;;;;;;5.40;1.00;;;2.10;99.90;;;;;;5060005;28;20048;-71
2023/03/05 06:01:31;;;;;;;4.45;0.90;;;2.10;99.90;;;;;;5035624;28;20077;-71
2023/03/05 06:03:58;;;;;;;3.15;0.82;;;2.00;99.90;;;;;;5051527;28;20054;-71
2023/03/05 06:06:26;;;;;;;5.90;1.10;;;2.20;99.90;;;;;;5048565;28;20044;-71
2023/03/05 06:08:53;;;;;;;5.95;1.00;;;2.00;99.90;;;;;;5053158;28;20050;-71
2023/03/05 06:11:19;;;;;;;5.57;0.93;;;2.00;99.90;;;;;;5048557;28;20127;-71
2023/03/05 06:13:47;;;;;;;5.85;1.10;;;2.00;99.90;;;;;;5049091;28;20055;-71
2023/03/05 06:16:16;;;;;;;3.58;1.05;;;1.90;99.90;;;;;;5028857;28;20510;-71
2023/03/05 06:18:42;;;;;;;4.13;1.00;;;1.90;99.90;;;;;;5046032;28;20128;-71
2023/03/05 06:21:14;;;;;;;3.13;1.23;;;1.90;99.90;;;;;;5052066;28;20044;-71
2023/03/05 06:23:40;;;;;;;4.38;1.05;;;1.90;99.90;;;;;;5067553;28;20539;-71
2023/03/05 06:26:08;;;;;;;3.53;0.90;;;1.80;99.90;;;;;;5048033;28;20104;-71
2023/03/05 06:28:34;;;;;;;3.25;1.10;;;1.90;99.90;;;;;;5055530;28;20195;-71
2023/03/05 06:31:06;;;;;;;3.20;1.10;;;1.80;99.90;;;;;;5047838;28;20123;-71
2023/03/05 06:33:33;;;;;;;7.05;1.20;;;2.10;99.90;;;;;;5034107;28;20047;-71
2023/03/05 06:36:01;;;;;;;2.58;1.00;;;1.90;99.90;;;;;;5051441;28;20131;-71
2023/03/05 06:38:27;;;;;;;4.53;1.00;;;1.90;99.90;;;;;;5051973;28;20052;-71
2023/03/05 06:40:53;;;;;;;4.28;1.00;;;1.80;99.90;;;;;;5029241;28;20126;-71
2023/03/05 06:43:19;;;;;;;7.13;1.42;;;1.90;99.90;;;;;;5027209;28;20486;-71
2023/03/05 06:45:45;;;;;;;3.83;1.30;;;1.90;99.90;;;;;;5047876;28;20090;-71
2023/03/05 06:48:11;;;;;;;3.90;1.10;;;1.90;99.90;;;;;;5039488;28;20054;-71
2023/03/05 06:50:37;;;;;;;6.85;1.20;;;1.90;99.90;;;;;;5015013;28;20048;-71
2023/03/05 06:53:04;;;;;;;4.85;1.27;;;2.00;99.90;;;;;;5038783;28;20040;-71
2023/03/05 06:55:30;;;;;;;5.35;1.30;;;1.90;99.90;;;;;;5060794;28;20058;-71
2023/03/05 06:57:55;;;;;;;3.80;1.20;;;2.00;99.90;;;;;;5063675;28;20044;-71
2023/03/05 07:00:23;;;;;;;10.00;1.75;;;2.00;99.90;;;;;;5041431;28;20086;-71
2023/03/05 07:02:49;;;;;;;6.05;1.40;;;2.00;99.90;;;;;;5036003;28;20044;-71
2023/03/05 07:05:15;;;;;;;7.05;1.25;;;2.00;99.90;;;;;;5063962;28;20040;-71
2023/03/05 07:07:41;;;;;;;6.50;1.35;;;2.10;99.90;;;;;;5027015;28;20048;-71
2023/03/05 07:10:07;;;;;;;8.40;1.83;;;2.10;99.90;;;;;;5046329;28;20083;-71
2023/03/05 07:12:34;;;;;;;8.60;1.50;;;2.10;99.90;;;;;;5056287;28;20182;-71
2023/03/05 07:15:00;;;;;;;7.15;1.75;;;2.20;99.90;;;;;;5034716;28;20048;-71
2023/03/05 07:17:26;;;;;;;5.85;1.13;;;2.20;99.90;;;;;;5048505;28;20104;-71
2023/03/05 07:19:52;;;;;;;5.68;1.30;;;2.20;99.90;;;;;;5064775;28;20966;-72
2023/03/05 07:22:18;;;;;;;3.78;1.30;;;2.20;99.90;;;;;;5045727;28;20101;-71
2023/03/05 07:24:44;;;;;;;9.55;1.40;;;2.30;99.90;;;;;;5045135;28;20044;-72
2023/03/05 07:27:09;;;;;;;7.57;1.67;;;2.30;99.90;;;;;;5067673;28;20607;-72
2023/03/05 07:29:35;;;;;;;2.58;1.10;;;2.30;99.90;;;;;;5048761;28;20070;-71
2023/03/05 07:32:01;;;;;;;5.63;1.35;;;2.50;99.90;;;;;;5046270;28;20084;-71
2023/03/05 07:34:27;;;;;;;4.90;1.20;;;2.40;99.90;;;;;;5059951;28;20055;-71
2023/03/05 07:36:53;;;;;;;5.60;1.30;;;2.50;99.90;;;;;;5027267;28;20039;-71
2023/03/05 07:39:19;;;;;;;8.13;1.40;;;2.50;99.90;;;;;;5032633;28;20048;-71
2023/03/05 07:41:46;;;;;;;9.68;1.83;;;2.50;99.90;;;;;;5064815;28;20044;-71
2023/03/05 07:44:12;;;;;;;5.70;1.58;;;2.60;99.90;;;;;;5046805;28;20054;-71
2023/03/05 07:46:38;;;;;;;8.82;1.30;;;2.70;99.90;;;;;;5056630;28;20043;-71
2023/03/05 07:49:03;;;;;;;6.60;1.60;;;2.70;99.90;;;;;;5069015;28;20078;-71
2023/03/05 07:51:29;;;;;;;7.97;1.70;;;2.80;99.90;;;;;;5067661;28;20118;-72
2023/03/05 07:53:57;;;;;;;7.40;1.80;;;2.80;99.90;;;;;;5069789;28;20075;-71
2023/03/05 07:56:34;;;;;;;6.15;1.35;;;2.90;99.90;;;;;;5070578;28;20424;-72
2023/03/05 07:59:09;;;;;;;4.13;1.30;;;3.00;99.90;;;;;;5048877;28;20043;-72
2023/03/05 08:01:35;;;;;;;10.10;1.40;;;3.10;99.90;;;;;;5042662;28;20060;-72
2023/03/05 08:04:03;;;;;;;7.90;1.83;;;3.20;99.90;;;;;;5055894;28;20051;-72
2023/03/05 08:06:28;;;;;;;5.28;1.50;;;3.20;99.90;;;;;;5025847;28;20127;-71
2023/03/05 08:08:54;;;;;;;5.43;1.40;;;3.30;99.90;;;;;;5053534;28;20044;-71
2023/03/05 08:11:20;;;;;;;5.80;1.35;;;3.30;99.90;;;;;;5064072;28;20044;-71
2023/03/05 08:13:46;;;;;;;6.00;1.67;;;3.30;99.90;;;;;;5066032;28;20548;-71
2023/03/05 08:16:21;;;;;;;9.52;1.73;;;3.40;99.90;;;;;;5048804;28;20059;-71
2023/03/05 08:18:47;;;;;;;6.25;1.15;;;3.40;99.90;;;;;;5040535;28;20059;-71
2023/03/05 08:21:28;;;;;;;6.18;1.10;;;3.60;99.90;;;;;;5063972;28;20107;-71
2023/03/05 08:23:57;;;;;;;9.07;1.50;;;3.50;99.90;;;;;;5060178;28;20170;-71
2023/03/05 08:26:29;;;;;;;8.73;1.75;;;3.50;99.90;;;;;;5043925;28;20082;-71
2023/03/05 08:28:55;;;;;;;7.43;1.50;;;3.60;99.90;;;;;;5064503;28;20039;-71
2023/03/05 08:31:24;;;;;;;8.55;2.05;;;3.70;99.90;;;;;;5047678;28;20040;-71
2023/03/05 08:33:51;;;;;;;8.95;1.85;;;3.80;99.90;;;;;;5081274;28;20050;-74
2023/03/05 08:36:17;;;;;;;10.40;1.67;;;3.90;99.90;;;;;;5050830;28;20059;-71
2023/03/05 08:38:45;;;;;;;8.60;1.50;;;4.00;99.90;;;;;;5065125;28;21368;-71
2023/03/05 08:41:12;;;;;;;4.43;1.23;;;4.10;99.90;;;;;;5045723;28;20096;-71
2023/03/05 08:43:37;;;;;;;10.15;1.65;;;4.20;99.90;;;;;;5040810;28;20072;-71
2023/03/05 08:46:04;;;;;;;5.65;1.63;;;4.30;99.90;;;;;;5031768;28;20055;-71
2023/03/05 08:48:30;;;;;;;11.85;1.98;;;4.40;99.90;;;;;;5070369;28;20036;-71
2023/03/05 08:50:57;;;;;;;14.98;1.55;;;4.50;99.90;;;;;;5069661;28;20478;-71
2023/03/05 08:53:23;;;;;;;6.15;1.45;;;4.60;99.90;;;;;;5052369;28;20043;-71
2023/03/05 08:55:56;;;;;;;8.80;1.40;;;4.70;99.90;;;;;;5042824;28;20044;-71
2023/03/05 08:58:23;;;;;;;3.65;1.00;;;4.70;99.90;;;;;;5041056;28;20613;-71
2023/03/05 09:00:49;;;;;;;8.18;1.13;;;4.80;99.90;;;;;;5066048;28;20044;-71
2023/03/05 09:03:15;;;;;;;4.60;1.52;;;4.80;99.90;;;;;;5046739;28;20152;-71
2023/03/05 09:05:41;;;;;;;7.50;1.48;;;4.80;99.90;;;;;;5044783;28;20051;-71
2023/03/05 09:08:06;;;;;;;7.05;1.10;;;4.70;99.90;;;;;;5022284;28;20044;-72
2023/03/05 09:10:32;;;;;;;4.05;0.90;;;4.50;99.90;;;;;;5035767;28;20051;-72
2023/03/05 09:12:58;;;;;;;4.63;0.70;;;4.40;99.90;;;;;;5066010;28;20151;-71
2023/03/05 09:15:24;;;;;;;3.13;0.80;;;4.20;99.90;;;;;;5061471;28;20047;-72
2023/03/05 09:17:50;;;;;;;2.35;0.70;;;4.10;99.90;;;;;;5043043;28;20051;-72
2023/03/05 09:20:16;;;;;;;1.67;1.02;;;4.20;99.90;;;;;;5061931;28;20048;-72
2023/03/05 09:22:42;;;;;;;4.72;0.90;;;4.20;99.90;;;;;;5056900;28;25295;-72
2023/03/05 09:25:10;;;;;;;3.67;0.80;;;4.30;99.90;;;;;;5056213;28;20036;-72
2023/03/05 09:27:37;;;;;;;5.25;1.02;;;4.50;99.90;;;;;;5057626;28;20044;-72
2023/03/05 09:30:05;;;;;;;5.85;1.08;;;4.60;99.90;;;;;;5052458;28;20048;-72
2023/03/05 09:32:31;;;;;;;3.67;0.90;;;4.80;99.90;;;;;;5049272;28;20074;-71
2023/03/05 09:34:57;;;;;;;5.45;1.42;;;5.00;99.90;;;;;;5034675;28;20130;-72
2023/03/05 09:37:24;;;;;;;4.82;0.95;;;5.10;99.90;;;;;;5053726;28;20087;-72
2023/03/05 09:39:49;;;;;;;5.05;1.30;;;5.30;99.90;;;;;;5041508;28;20103;-72
2023/03/05 09:42:33;;;;;;;10.07;1.80;;;5.40;99.90;;;;;;5041325;28;20441;-71
2023/03/05 09:45:19;;;;;;;8.43;1.35;;;5.60;99.90;;;;;;5051250;28;20105;-72
2023/03/05 09:48:03;;;;;;;5.30;1.40;;;5.70;99.90;;;;;;5052195;28;20513;-72
2023/03/05 09:50:38;;;;;;;9.95;1.60;;;5.90;99.90;;;;;;5055093;28;20156;-72
2023/03/05 09:53:27;;;;;;;6.75;1.42;;;6.00;99.90;;;;;;5046978;28;20048;-72
2023/03/05 09:56:01;;;;;;;8.48;1.50;;;6.10;99.90;;;;;;5043915;28;20526;-71
2023/03/05 09:58:34;;;;;;;5.53;1.23;;;6.10;99.90;;;;;;5050093;28;20068;-71
2023/03/05 10:01:21;;;;;;;6.15;1.60;;;6.10;99.90;;;;;;5059601;28;20051;-72
2023/03/05 10:03:50;;;;;;;11.32;1.75;;;6.20;99.90;;;;;;5028095;28;20359;-72
2023/03/05 10:06:51;;;;;;;5.93;1.45;;;6.20;99.90;;;;;;5058620;28;20051;-72
2023/03/05 10:09:35;;;;;;;6.65;1.48;;;6.20;99.90;;;;;;5052570;28;20071;-72
2023/03/05 10:12:06;;;;;;;8.57;1.65;;;6.10;99.90;;;;;;5062167;28;20101;-72
2023/03/05 10:14:42;;;;;;;8.30;1.35;;;6.10;99.90;;;;;;5059716;28;20043;-72
2023/03/05 10:17:20;;;;;;;7.88;1.10;;;6.00;99.90;;;;;;5037442;28;20059;-71
2023/03/05 10:20:21;;;;;;;10.52;1.30;;;6.10;99.90;;;;;;5056101;28;20040;-71
2023/03/05 10:23:23;;;;;;;12.68;1.40;;;6.10;99.90;;;;;;5029688;28;20070;-71
2023/03/05 10:26:16;;;;;;;10.77;1.40;;;6.20;99.90;;;;;;5062547;28;20036;-71
2023/03/05 10:28:47;;;;;;;7.50;1.40;;;6.30;99.90;;;;;;5059037;28;20072;-72
2023/03/05 10:31:50;;;;;;;5.68;1.20;;;6.30;99.90;;;;;;5056953;28;20154;-71
2023/03/05 10:34:24;;;;;;;7.25;1.17;;;6.30;99.90;;;;;;5059181;28;20098;-71
2023/03/05 10:37:11;;;;;;;8.88;1.10;;;6.30;99.90;;;;;;5061030;28;20051;-72
2023/03/05 10:40:01;;;;;;;7.80;1.50;;;6.30;99.90;;;;;;5060595;28;22114;-71
2023/03/05 10:42:40;;;;;;;8.30;1.27;;;6.50;99.90;;;;;;5040164;28;20585;-71
2023/03/05 10:45:15;;;;;;;5.10;1.10;;;6.60;99.90;;;;;;5029864;28;20824;-71
2023/03/05 10:47:51;;;;;;;4.47;0.95;;;6.70;99.90;;;;;;5042882;28;20154;-71
2023/03/05 10:50:22;;;;;;;6.05;1.00;;;6.70;99.90;;;;;;5042611;28;20052;-71
2023/03/05 10:53:12;;;;;;;6.47;1.15;;;6.70;99.90;;;;;;5059418;28;20097;-71
2023/03/05 10:55:38;;;;;;;4.15;1.20;;;6.70;99.90;;;;;;5048645;28;20052;-71
2023/03/05 10:58:16;;;;;;;3.38;1.05;;;6.80;99.90;;;;;;5022900;28;20291;-71
2023/03/05 11:01:01;;;;;;;5.32;0.90;;;6.90;99.90;;;;;;5060636;28;20039;-71
2023/03/05 11:03:46;;;;;;;9.77;1.10;;;6.90;99.90;;;;;;5056215;28;20417;-71
2023/03/05 11:06:12;;;;;;;7.22;1.27;;;6.90;99.90;;;;;;5056777;28;20067;-71
2023/03/05 11:08:38;;;;;;;8.15;1.50;;;6.80;99.90;;;;;;5039691;28;21968;-71
2023/03/05 11:11:11;;;;;;;6.25;1.23;;;6.70;99.90;;;;;;5061261;28;20073;-71
2023/03/05 11:13:47;;;;;;;12.63;2.03;;;6.80;99.90;;;;;;5056182;28;20059;-71
2023/03/05 11:16:33;;;;;;;8.38;1.08;;;7.10;99.90;;;;;;5049421;28;20059;-71
2023/03/05 11:19:14;;;;;;;7.32;1.35;;;7.40;99.90;;;;;;5024515;28;20048;-71
2023/03/05 11:21:41;;;;;;;5.20;1.10;;;7.70;99.90;;;;;;5043074;28;20042;-71
2023/03/05 11:24:12;;;;;;;5.07;1.10;;;8.00;99.90;;;;;;5020309;28;20054;-70
2023/03/05 11:26:45;;;;;;;8.50;1.52;;;8.20;99.90;;;;;;5057253;28;20067;-71
2023/03/05 11:29:33;;;;;;;8.73;1.15;;;8.30;99.90;;;;;;5018282;28;20047;-71
2023/03/05 11:32:20;;;;;;;5.13;0.90;;;8.30;99.90;;;;;;5051236;28;20105;-71
2023/03/05 11:34:45;;;;;;;5.78;0.80;;;8.40;99.90;;;;;;5048246;28;20349;-70
2023/03/05 11:37:30;;;;;;;6.35;1.00;;;8.40;99.90;;;;;;5057497;28;20054;-70
2023/03/05 11:40:15;;;;;;;8.80;1.20;;;8.40;99.90;;;;;;5066510;28;20048;-70
2023/03/05 11:42:42;;;;;;;5.03;0.93;;;8.40;99.90;;;;;;5061409;28;20585;-71
2023/03/05 11:45:18;;;;;;;5.45;1.00;;;8.30;99.90;;;;;;5010869;28;20040;-71
2023/03/05 11:47:48;;;;;;;3.78;1.02;;;8.20;99.90;;;;;;5040517;28;20052;-71
2023/03/05 11:50:25;;;;;;;5.68;1.30;;;8.20;99.90;;;;;;5054887;28;20048;-71
2023/03/05 11:53:02;;;;;;;5.22;0.85;;;8.10;99.90;;;;;;5059405;28;20051;-71
2023/03/05 11:55:44;;;;;;;6.28;1.02;;;8.00;99.90;;;;;;5064364;28;20056;-71
2023/03/05 11:58:35;;;;;;;9.02;1.25;;;8.00;99.90;;;;;;5063875;28;20044;-70
2023/03/05 12:01:05;;;;;;;6.95;1.13;;;8.00;99.90;;;;;;5083417;28;20043;-70
2023/03/05 12:03:34;;;;;;;5.97;1.15;;;8.10;99.90;;;;;;5058787;28;20040;-71
2023/03/05 12:06:11;;;;;;;5.47;1.05;;;8.30;99.90;;;;;;5040928;28;20048;-71
2023/03/05 12:08:42;;;;;;;4.53;1.00;;;8.40;99.90;;;;;;5021766;28;20049;-71
2023/03/05 12:11:35;;;;;;;3.55;0.98;;;8.60;99.90;;;;;;5060269;28;20394;-71
2023/03/05 12:14:04;;;;;;;;;;;8.80;99.90;;;;;;5053915;28;20055;-71
2023/03/05 12:16:44;;;;;;;7.35;0.93;;;9.10;99.90;;;;;;5054715;28;19928;-70
2023/03/05 12:19:50;;;;;;;7.65;1.13;;;9.40;99.90;;;;;;5041873;28;20049;-70
2023/03/05 12:22:22;;;;;;;4.05;1.05;;;9.50;99.90;;;;;;5054761;28;20050;-70
2023/03/05 12:24:49;;;;;;;9.85;1.35;;;9.30;99.90;;;;;;5052353;28;20036;-71
2023/03/05 12:27:32;;;;;;;5.90;1.17;;;9.00;99.90;;;;;;5061708;28;20109;-71
2023/03/05 12:30:01;;;;;;;7.65;1.30;;;8.70;99.90;;;;;;5054399;28;20040;-70
2023/03/05 12:32:27;;;;;;;3.72;1.13;;;8.60;99.90;;;;;;5021593;28;20056;-71
2023/03/05 12:35:05;;;;;;;4.72;1.15;;;8.50;99.90;;;;;;5026407;28;20071;-70
2023/03/05 12:37:31;;;;;;;4.72;0.90;;;8.30;99.90;;;;;;5055732;28;20166;-70
2023/03/05 12:39:59;;;;;;;7.65;1.15;;;8.10;99.90;;;;;;5066154;28;20507;-71
2023/03/05 12:42:28;;;;;;;8.40;1.45;;;8.00;99.90;;;;;;5044457;28;20040;-71
2023/03/05 12:45:13;;;;;;;7.57;1.42;;;7.90;99.90;;;;;;5064425;28;20070;-71
2023/03/05 12:47:59;;;;;;;7.28;1.80;;;8.00;99.90;;;;;;5032495;28;20047;-70
2023/03/05 12:50:27;;;;;;;5.00;1.20;;;8.10;99.90;;;;;;5062079;28;20123;-71
2023/03/05 12:53:10;;;;;;;7.97;1.17;;;8.10;99.90;;;;;;5047365;28;20044;-71
2023/03/05 12:55:47;;;;;;;3.55;1.00;;;8.10;99.90;;;;;;5065796;28;20440;-71
2023/03/05 12:58:38;;;;;;;4.63;1.02;;;8.00;99.90;;;;;;5043285;28;20045;-71
2023/03/05 13:01:03;;;;;;;6.32;1.17;;;8.10;99.90;;;;;;5046815;28;20048;-71
2023/03/05 13:04:00;;;;;;;6.60;1.35;;;8.20;99.90;;;;;;5067246;28;20041;-71
2023/03/05 13:06:34;;;;;;;4.05;1.00;;;8.60;99.90;;;;;;5048739;28;20052;-71
2023/03/05 13:09:15;;;;;;;4.25;0.90;;;8.90;99.90;;;;;;5054863;28;20060;-71
2023/03/05 13:11:44;;;;;;;4.95;0.95;;;9.00;99.90;;;;;;5065829;28;20045;-70